createdAt,value
2019-03-27T00:00:35.673Z,21.95
2019-03-27T00:03:05.217Z,22.13
2019-03-27T00:05:34.691Z,17.45
2019-03-27T00:08:04.460Z,21.42
2019-03-27T00:10:33.928Z,18.23
2019-03-27T00:13:04.525Z,22.82
2019-03-27T00:15:34.108Z,21.05
2019-03-27T00:18:04.662Z,19.57
2019-03-27T00:20:34.146Z,21.55
2019-03-27T00:23:04.720Z,18.40
2019-03-27T00:25:34.226Z,24.12
2019-03-27T00:28:04.531Z,20.52
2019-03-27T00:30:38.343Z,18.57
2019-03-27T00:33:09.949Z,22.22
2019-03-27T00:35:39.416Z,21.60
2019-03-27T00:38:08.876Z,22.85
2019-03-27T00:40:38.536Z,20.80
2019-03-27T00:45:25.917Z,20.92
2019-03-27T00:49:36.014Z,21.00
2019-03-27T01:04:43.720Z,22.27
2019-03-27T01:16:31.438Z,27.87
2019-03-27T01:19:01.342Z,24.35
2019-03-27T01:21:31.073Z,27.17
2019-03-27T01:24:01.197Z,23.52
2019-03-27T01:26:30.957Z,30.32
2019-03-27T01:29:00.597Z,27.25
2019-03-27T01:31:30.063Z,25.85
2019-03-27T01:34:00.766Z,26.23
2019-03-27T01:36:30.261Z,24.82
2019-03-27T01:38:59.746Z,26.77
2019-03-27T01:41:29.345Z,23.53
2019-03-27T01:43:58.858Z,23.25
2019-03-27T01:46:28.599Z,29.35
2019-03-27T01:48:58.117Z,28.65
2019-03-27T01:51:27.574Z,28.15
2019-03-27T01:53:57.129Z,26.87
2019-03-27T01:56:26.595Z,30.88
2019-03-27T01:58:56.240Z,29.27
2019-03-27T02:01:25.704Z,34.75
2019-03-27T02:03:55.213Z,22.48
2019-03-27T02:06:24.904Z,24.20
2019-03-27T02:08:54.528Z,32.55
2019-03-27T02:11:23.999Z,24.23
2019-03-27T02:13:53.502Z,23.15
2019-03-27T02:16:23.002Z,26.93
2019-03-27T02:18:52.485Z,24.80
2019-03-27T02:21:22.876Z,22.27
2019-03-27T02:23:52.371Z,28.07
2019-03-27T02:26:22.078Z,24.98
2019-03-27T02:28:51.556Z,26.62
2019-03-27T02:31:21.020Z,28.47
2019-03-27T02:33:50.640Z,29.32
2019-03-27T02:36:20.250Z,29.00
2019-03-27T02:38:49.881Z,26.85
2019-03-27T02:41:19.337Z,27.02
2019-03-27T02:43:48.962Z,28.60
2019-03-27T02:46:25.084Z,30.63
2019-03-27T02:48:49.708Z,31.00
2019-03-27T02:51:19.385Z,32.70
2019-03-27T02:53:48.975Z,29.57
2019-03-27T02:56:18.489Z,25.63
2019-03-27T02:58:49.025Z,24.47
2019-03-27T03:01:18.596Z,25.02
2019-03-27T03:03:48.106Z,30.02
2019-03-27T03:06:17.745Z,25.92
2019-03-27T03:08:47.459Z,25.52
2019-03-27T03:11:16.957Z,30.68
2019-03-27T03:13:47.411Z,26.87
2019-03-27T03:16:17.167Z,28.50
2019-03-27T03:18:46.900Z,29.32
2019-03-27T03:21:16.449Z,27.05
2019-03-27T03:23:45.944Z,28.32
2019-03-27T03:26:15.518Z,29.00
2019-03-27T03:28:45.200Z,29.00
2019-03-27T03:31:14.697Z,31.73
2019-03-27T03:33:44.207Z,25.77
2019-03-27T03:36:13.674Z,30.48
2019-03-27T03:38:43.530Z,25.57
2019-03-27T03:41:14.282Z,28.27
2019-03-27T03:43:43.781Z,33.20
2019-03-27T03:46:13.308Z,27.82
2019-03-27T03:48:42.959Z,28.40
2019-03-27T03:51:13.021Z,28.10
2019-03-27T03:53:42.691Z,29.60
2019-03-27T03:56:13.601Z,24.25
2019-03-27T03:58:43.898Z,31.65
2019-03-27T04:01:15.887Z,29.20
2019-03-27T04:03:47.877Z,34.85
2019-03-27T04:06:17.568Z,29.43
2019-03-27T04:08:47.065Z,30.60
2019-03-27T04:11:16.644Z,26.85
2019-03-27T04:13:46.300Z,32.98
2019-03-27T04:16:15.865Z,28.47
2019-03-27T04:18:45.463Z,30.82
2019-03-27T04:21:15.434Z,33.65
2019-03-27T04:23:46.155Z,33.83
2019-03-27T04:26:16.772Z,31.87
2019-03-27T04:28:46.243Z,31.93
2019-03-27T04:31:15.896Z,33.48
2019-03-27T04:33:45.396Z,30.23
2019-03-27T04:36:14.990Z,34.92
2019-03-27T04:38:47.659Z,32.93
2019-03-27T04:41:17.201Z,31.02
2019-03-27T04:43:46.852Z,28.38
2019-03-27T04:46:16.413Z,33.73
2019-03-27T04:48:45.989Z,35.25
2019-03-27T04:51:15.592Z,32.90
2019-03-27T04:53:45.089Z,36.38
2019-03-27T04:56:14.590Z,31.25
2019-03-27T04:58:44.098Z,35.13
2019-03-27T05:01:14.402Z,27.77
2019-03-27T05:03:44.190Z,28.00
2019-03-27T05:06:14.833Z,29.48
2019-03-27T05:08:44.286Z,39.90
2019-03-27T05:11:14.050Z,35.35
2019-03-27T05:13:43.567Z,38.13
2019-03-27T05:16:13.133Z,33.50
2019-03-27T05:18:42.666Z,33.73
2019-03-27T05:21:12.169Z,37.88
2019-03-27T05:23:41.614Z,35.30
2019-03-27T05:26:11.077Z,39.58
2019-03-27T05:28:40.575Z,40.98
2019-03-27T05:31:10.143Z,41.65
2019-03-27T05:33:39.719Z,38.83
2019-03-27T05:36:09.209Z,44.55
2019-03-27T05:38:38.668Z,40.88
2019-03-27T05:41:08.158Z,43.23
2019-03-27T05:43:37.587Z,39.48
2019-03-27T05:46:07.210Z,41.40
2019-03-27T05:48:36.651Z,50.52
2019-03-27T05:51:06.129Z,42.70
2019-03-27T05:53:35.631Z,43.98
2019-03-27T05:56:05.387Z,42.55
2019-03-27T05:58:34.829Z,39.27
2019-03-27T06:01:12.409Z,45.03
2019-03-27T06:03:47.546Z,40.33
2019-03-27T06:06:17.048Z,39.55
2019-03-27T06:08:46.705Z,45.65
2019-03-27T06:11:16.260Z,39.30
2019-03-27T06:13:45.817Z,44.58
2019-03-27T06:16:15.263Z,39.27
2019-03-27T06:18:45.808Z,44.42
2019-03-27T06:21:15.279Z,40.47
2019-03-27T06:23:44.730Z,36.23
2019-03-27T06:26:14.202Z,35.30
2019-03-27T06:28:43.650Z,37.00
2019-03-27T06:31:13.244Z,45.52
2019-03-27T06:33:42.822Z,40.98
2019-03-27T06:36:12.328Z,41.93
2019-03-27T06:38:41.960Z,39.60
2019-03-27T06:41:11.553Z,38.23
2019-03-27T06:43:40.996Z,41.50
2019-03-27T06:46:10.595Z,45.45
2019-03-27T06:48:40.073Z,41.20
2019-03-27T06:51:09.547Z,39.15
2019-03-27T06:53:39.137Z,42.70
2019-03-27T06:56:08.612Z,39.32
2019-03-27T06:58:38.346Z,40.30
2019-03-27T07:01:07.912Z,43.15
2019-03-27T07:03:37.512Z,39.63
2019-03-27T07:06:06.956Z,40.58
2019-03-27T07:08:36.507Z,39.70
2019-03-27T07:11:05.970Z,40.85
2019-03-27T07:13:35.575Z,49.67
2019-03-27T07:16:05.077Z,46.45
2019-03-27T07:18:40.146Z,42.30
2019-03-27T07:21:06.034Z,47.03
2019-03-27T07:23:35.536Z,44.40
2019-03-27T07:26:05.004Z,45.15
2019-03-27T07:28:34.606Z,43.58
2019-03-27T07:31:04.442Z,46.85
2019-03-27T07:33:33.938Z,53.68
2019-03-27T07:36:04.431Z,57.50
2019-03-27T07:38:33.926Z,58.20
2019-03-27T07:41:04.462Z,54.98
2019-03-27T07:43:34.020Z,56.13
2019-03-27T07:46:04.466Z,57.50
2019-03-27T07:48:33.958Z,53.90
2019-03-27T07:51:04.444Z,53.95
2019-03-27T07:53:33.895Z,53.98
2019-03-27T07:56:04.500Z,55.90
2019-03-27T07:58:33.955Z,59.13
2019-03-27T08:01:04.484Z,52.83
2019-03-27T08:03:34.038Z,47.48
2019-03-27T08:06:03.499Z,48.83
2019-03-27T08:08:33.308Z,42.33
2019-03-27T08:11:02.811Z,44.18
2019-03-27T08:13:32.287Z,37.85
2019-03-27T08:16:01.773Z,45.08
2019-03-27T08:18:31.259Z,38.48
2019-03-27T08:21:00.754Z,34.18
2019-03-27T08:23:30.309Z,35.00
2019-03-27T08:25:59.933Z,30.95
2019-03-27T08:28:29.378Z,29.87
2019-03-27T08:30:59.060Z,34.18
2019-03-27T08:33:28.497Z,34.70
2019-03-27T08:35:57.969Z,27.98
2019-03-27T08:38:27.470Z,30.72
2019-03-27T08:40:56.948Z,32.20
2019-03-27T08:43:26.390Z,24.27
2019-03-27T08:45:56.120Z,26.40
2019-03-27T08:48:25.529Z,25.12
2019-03-27T08:50:55.023Z,25.80
2019-03-27T08:53:24.579Z,28.87
2019-03-27T08:55:54.060Z,23.22
2019-03-27T08:58:23.531Z,20.55
2019-03-27T09:00:54.368Z,26.20
2019-03-27T09:03:24.023Z,23.87
2019-03-27T09:05:53.542Z,26.05
2019-03-27T09:08:23.127Z,24.75
2019-03-27T09:10:52.629Z,23.22
2019-03-27T09:13:22.973Z,21.20
2019-03-27T09:15:52.689Z,22.73
2019-03-27T09:18:22.243Z,27.62
2019-03-27T09:20:51.691Z,26.57
2019-03-27T09:23:21.308Z,27.42
2019-03-27T09:25:50.781Z,25.00
2019-03-27T09:28:20.238Z,21.53
2019-03-27T09:30:49.685Z,22.90
2019-03-27T09:33:19.166Z,29.67
2019-03-27T09:35:48.735Z,23.32
2019-03-27T09:38:18.233Z,26.62
2019-03-27T09:40:47.861Z,24.92
2019-03-27T09:43:17.423Z,21.50
2019-03-27T09:45:47.049Z,22.60
2019-03-27T09:48:16.625Z,26.23
2019-03-27T09:50:46.233Z,28.15
2019-03-27T09:53:15.825Z,26.62
2019-03-27T09:55:45.281Z,27.75
2019-03-27T09:58:15.026Z,25.52
2019-03-27T10:00:53.133Z,22.05
2019-03-27T10:03:22.724Z,23.87
2019-03-27T10:05:52.352Z,21.60
2019-03-27T10:08:21.854Z,20.70
2019-03-27T10:10:51.473Z,18.25
2019-03-27T10:13:21.293Z,19.10
2019-03-27T10:15:50.749Z,18.17
2019-03-27T10:18:20.330Z,20.40
2019-03-27T10:20:49.837Z,17.23
2019-03-27T10:23:19.322Z,22.07
2019-03-27T10:25:48.751Z,22.93
2019-03-27T10:28:18.731Z,19.92
2019-03-27T10:30:48.312Z,19.07
2019-03-27T10:33:17.918Z,19.85
2019-03-27T10:35:47.431Z,22.00
2019-03-27T10:38:16.938Z,16.97
2019-03-27T10:40:46.511Z,20.65
2019-03-27T10:43:16.494Z,19.42
2019-03-27T10:45:46.036Z,17.87
2019-03-27T10:48:15.586Z,19.00
2019-03-27T10:50:45.025Z,20.57
2019-03-27T10:53:14.580Z,19.07
2019-03-27T10:55:44.110Z,19.12
2019-03-27T10:58:13.806Z,16.20
2019-03-27T11:00:43.329Z,19.95
2019-03-27T11:03:12.995Z,18.98
2019-03-27T11:05:42.551Z,18.75
2019-03-27T11:08:12.028Z,19.95
2019-03-27T11:10:42.477Z,15.45
2019-03-27T11:13:12.063Z,20.50
2019-03-27T11:15:41.516Z,20.48
2019-03-27T11:18:11.145Z,16.23
2019-03-27T11:20:40.652Z,14.78
2019-03-27T11:23:10.246Z,16.93
2019-03-27T11:25:39.749Z,18.67
2019-03-27T11:28:10.379Z,16.45
2019-03-27T11:30:41.125Z,12.50
2019-03-27T11:33:10.937Z,12.43
2019-03-27T11:35:40.659Z,13.55
2019-03-27T11:38:10.162Z,15.75
2019-03-27T11:40:39.704Z,12.95
2019-03-27T11:43:09.251Z,15.40
2019-03-27T11:45:38.863Z,15.65
2019-03-27T11:48:08.477Z,12.63
2019-03-27T11:50:44.829Z,12.95
2019-03-27T11:53:09.155Z,15.68
2019-03-27T11:55:38.686Z,14.85
2019-03-27T11:58:08.186Z,12.82
2019-03-27T12:00:37.741Z,13.35
2019-03-27T12:03:07.252Z,13.70
2019-03-27T12:05:37.869Z,13.43
2019-03-27T12:08:07.403Z,17.35
2019-03-27T12:10:36.830Z,13.53
2019-03-27T12:13:06.380Z,11.75
2019-03-27T12:15:38.174Z,13.68
2019-03-27T12:18:09.341Z,10.35
2019-03-27T12:20:38.796Z,10.45
2019-03-27T12:23:08.283Z,11.55
2019-03-27T12:25:37.733Z,13.53
2019-03-27T12:28:07.242Z,8.75
2019-03-27T12:30:36.853Z,9.55
2019-03-27T12:33:06.517Z,12.43
2019-03-27T12:35:35.981Z,10.25
2019-03-27T12:38:06.518Z,13.93
2019-03-27T12:40:35.964Z,11.15
2019-03-27T12:43:05.511Z,11.40
2019-03-27T12:45:35.349Z,10.80
2019-03-27T12:48:05.747Z,9.40
2019-03-27T12:50:35.403Z,13.90
2019-03-27T12:53:05.425Z,9.83
2019-03-27T12:55:35.004Z,9.50
2019-03-27T12:58:04.937Z,14.03
2019-03-27T13:00:34.520Z,9.83
2019-03-27T13:03:04.829Z,10.10
2019-03-27T13:05:34.282Z,11.73
2019-03-27T13:08:04.579Z,11.50
2019-03-27T13:10:34.203Z,10.23
2019-03-27T13:13:04.475Z,10.78
2019-03-27T13:15:33.942Z,8.10
2019-03-27T13:18:04.733Z,8.78
2019-03-27T13:20:34.294Z,9.28
2019-03-27T13:23:04.857Z,11.28
2019-03-27T13:25:34.807Z,9.33
2019-03-27T13:28:04.403Z,18.82
2019-03-27T13:30:33.908Z,11.50
2019-03-27T13:33:04.421Z,7.04
2019-03-27T13:35:33.923Z,8.78
2019-03-27T13:38:04.459Z,10.46
2019-03-27T13:40:33.944Z,11.33
2019-03-27T13:43:04.464Z,9.68
2019-03-27T13:45:34.006Z,9.33
2019-03-27T13:48:04.973Z,6.20
2019-03-27T13:50:34.520Z,7.80
2019-03-27T13:53:04.958Z,6.52
2019-03-27T13:55:35.314Z,7.78
2019-03-27T13:58:05.428Z,7.95
2019-03-27T14:00:34.979Z,8.15
2019-03-27T14:03:04.500Z,10.23
2019-03-27T14:05:33.974Z,9.78
2019-03-27T14:08:04.439Z,16.45
2019-03-27T14:10:34.015Z,10.95
2019-03-27T14:13:04.402Z,9.08
2019-03-27T14:15:33.920Z,7.20
2019-03-27T14:18:03.423Z,8.40
2019-03-27T14:20:32.984Z,8.83
2019-03-27T14:23:02.421Z,7.50
2019-03-27T14:25:31.948Z,8.93
2019-03-27T14:28:01.402Z,7.12
2019-03-27T14:30:49.153Z,6.67
2019-03-27T14:33:19.107Z,9.95
2019-03-27T14:35:48.618Z,9.78
2019-03-27T14:38:18.100Z,7.65
2019-03-27T14:40:47.648Z,9.28
2019-03-27T14:43:17.230Z,7.40
2019-03-27T14:45:48.018Z,8.03
2019-03-27T14:48:17.713Z,14.60
2019-03-27T14:50:47.180Z,9.48
2019-03-27T14:53:16.634Z,9.88
2019-03-27T14:55:46.153Z,9.93
2019-03-27T14:58:15.874Z,9.38
2019-03-27T15:00:45.409Z,11.87
2019-03-27T15:03:14.846Z,10.58
2019-03-27T15:05:44.326Z,8.23
2019-03-27T15:08:13.762Z,8.28
2019-03-27T15:10:43.251Z,8.58
2019-03-27T15:13:15.308Z,8.20
2019-03-27T15:15:43.957Z,6.85
2019-03-27T15:18:13.473Z,8.97
2019-03-27T15:20:42.938Z,8.05
2019-03-27T15:23:12.397Z,10.00
2019-03-27T15:25:41.880Z,9.50
2019-03-27T15:28:11.376Z,8.83
2019-03-27T15:30:40.805Z,6.40
2019-03-27T15:33:10.683Z,7.47
2019-03-27T15:35:40.345Z,6.80
2019-03-27T15:38:09.811Z,6.42
2019-03-27T15:40:46.301Z,8.45
2019-03-27T15:43:17.426Z,8.30
2019-03-27T15:45:46.903Z,7.47
2019-03-27T15:48:16.406Z,8.40
2019-03-27T15:50:56.914Z,5.28
2019-03-27T15:53:17.157Z,6.92
2019-03-27T15:55:46.743Z,6.65
2019-03-27T15:58:16.290Z,6.67
2019-03-27T16:00:45.777Z,8.45
2019-03-27T16:03:15.272Z,10.18
2019-03-27T16:05:44.754Z,9.00
2019-03-27T16:08:14.225Z,7.87
2019-03-27T16:10:43.707Z,4.40
2019-03-27T16:13:13.361Z,7.05
2019-03-27T16:15:42.883Z,8.33
2019-03-27T16:18:12.428Z,9.50
2019-03-27T16:20:41.993Z,5.72
2019-03-27T16:23:12.493Z,10.13
2019-03-27T16:25:41.979Z,7.65
2019-03-27T16:28:11.520Z,7.53
2019-03-27T16:30:41.139Z,8.28
2019-03-27T16:33:10.684Z,6.80
2019-03-27T16:35:40.136Z,6.08
2019-03-27T16:38:09.690Z,7.75
2019-03-27T16:40:44.907Z,8.60
2019-03-27T16:43:14.506Z,7.57
2019-03-27T16:45:45.177Z,6.92
2019-03-27T16:48:16.160Z,8.73
2019-03-27T16:50:45.726Z,11.00
2019-03-27T16:53:15.366Z,7.87
2019-03-27T16:55:44.974Z,9.05
2019-03-27T16:58:14.504Z,8.27
2019-03-27T17:00:44.108Z,7.85
2019-03-27T17:03:13.608Z,11.65
2019-03-27T17:05:53.241Z,9.30
2019-03-27T17:08:15.188Z,8.00
2019-03-27T17:10:44.795Z,8.00
2019-03-27T17:13:14.302Z,8.73
2019-03-27T17:15:44.699Z,9.63
2019-03-27T17:18:14.313Z,8.23
2019-03-27T17:20:44.073Z,9.85
2019-03-27T17:23:18.356Z,8.68
2019-03-27T17:25:45.127Z,10.78
2019-03-27T17:28:14.665Z,10.90
2019-03-27T17:30:44.212Z,12.15
2019-03-27T17:33:13.809Z,11.65
2019-03-27T17:35:43.382Z,11.40
2019-03-27T17:38:12.857Z,11.38
2019-03-27T17:40:42.545Z,10.40
2019-03-27T17:43:12.243Z,11.80
2019-03-27T17:45:41.718Z,10.28
2019-03-27T17:48:11.369Z,11.95
2019-03-27T17:50:41.095Z,11.60
2019-03-27T17:53:10.646Z,9.85
2019-03-27T17:55:40.137Z,11.88
2019-03-27T17:58:09.528Z,13.96
2019-03-27T18:00:44.470Z,15.05
2019-03-27T18:03:14.176Z,13.20
2019-03-27T18:05:43.667Z,13.10
2019-03-27T18:14:38.252Z,14.93
2019-03-27T18:17:08.059Z,12.60
2019-03-27T18:19:37.653Z,10.48
2019-03-27T18:22:08.213Z,11.73
2019-03-27T18:24:37.808Z,13.65
2019-03-27T18:27:07.394Z,11.85
2019-03-27T18:30:03.592Z,11.40
2019-03-27T18:32:35.637Z,10.90
2019-03-27T18:35:13.874Z,10.18
2019-03-27T18:37:43.510Z,10.77
2019-03-27T18:40:13.291Z,11.38
2019-03-27T18:42:42.927Z,16.93
2019-03-27T18:45:13.334Z,11.50
2019-03-27T18:47:43.137Z,10.85
2019-03-27T18:50:14.166Z,12.05
2019-03-27T18:52:43.673Z,11.35
2019-03-27T18:55:25.695Z,10.77
2019-03-27T18:57:59.319Z,11.68
2019-03-27T19:00:20.536Z,14.78
2019-03-27T19:02:50.392Z,10.43
2019-03-27T19:05:19.985Z,15.28
2019-03-27T19:07:49.565Z,13.55
2019-03-27T19:10:19.788Z,14.77
2019-03-27T19:12:49.270Z,14.20
2019-03-27T19:15:18.872Z,12.15
2019-03-27T19:17:48.482Z,11.73
2019-03-27T19:20:18.022Z,13.78
2019-03-27T19:22:47.655Z,10.82
2019-03-27T19:25:17.167Z,10.27
2019-03-27T19:27:46.755Z,11.55
2019-03-27T19:30:16.688Z,11.35
2019-03-27T19:32:46.695Z,11.97
2019-03-27T19:35:16.150Z,11.30
2019-03-27T19:37:45.643Z,15.00
2019-03-27T19:40:15.319Z,13.38
2019-03-27T19:42:45.749Z,11.97
2019-03-27T19:45:15.482Z,15.80
2019-03-27T19:47:45.012Z,13.65
2019-03-27T19:50:14.903Z,14.97
2019-03-27T19:52:44.572Z,12.73
2019-03-27T19:55:14.158Z,13.48
2019-03-27T19:57:43.789Z,13.45
2019-03-27T20:00:13.886Z,13.40
2019-03-27T20:02:43.634Z,11.63
2019-03-27T20:05:13.341Z,14.98
2019-03-27T20:07:43.938Z,12.85
2019-03-27T20:10:13.699Z,14.83
2019-03-27T20:12:43.492Z,12.90
2019-03-27T20:15:13.266Z,15.38
2019-03-27T20:17:42.895Z,15.05
2019-03-27T20:20:12.832Z,12.07
2019-03-27T20:22:42.430Z,13.28
2019-03-27T20:25:14.828Z,12.93
2019-03-27T20:27:43.428Z,15.00
2019-03-27T20:30:18.964Z,14.95
2019-03-27T20:32:48.529Z,14.78
2019-03-27T20:35:18.226Z,14.37
2019-03-27T20:37:47.813Z,18.17
2019-03-27T20:40:17.631Z,16.03
2019-03-27T20:42:47.136Z,16.87
2019-03-27T20:45:16.977Z,17.47
2019-03-27T20:47:46.519Z,16.05
2019-03-27T20:50:16.702Z,15.78
2019-03-27T20:52:46.386Z,19.87
2019-03-27T20:55:29.281Z,14.30
2019-03-27T20:57:47.189Z,15.58
2019-03-27T21:00:17.099Z,14.98
2019-03-27T21:02:46.707Z,17.12
2019-03-27T21:05:16.287Z,16.62
2019-03-27T21:07:45.931Z,17.25
2019-03-27T21:10:15.856Z,18.43
2019-03-27T21:12:45.407Z,18.37
2019-03-27T21:15:14.853Z,19.02
2019-03-27T21:17:44.327Z,17.90
2019-03-27T21:20:13.873Z,18.62
2019-03-27T21:22:43.333Z,16.97
2019-03-27T21:25:12.965Z,17.95
2019-03-27T21:27:42.421Z,16.27
2019-03-27T21:30:12.712Z,16.57
2019-03-27T21:32:42.232Z,17.12
2019-03-27T21:35:11.957Z,17.23
2019-03-27T21:37:41.428Z,16.30
2019-03-27T21:40:11.220Z,17.73
2019-03-27T21:42:40.650Z,18.23
2019-03-27T21:45:10.883Z,14.00
2019-03-27T21:47:41.903Z,15.88
2019-03-27T21:50:11.734Z,14.27
2019-03-27T21:52:41.161Z,14.78
2019-03-27T21:55:21.848Z,14.50
2019-03-27T21:57:42.574Z,13.55
2019-03-27T22:00:12.357Z,15.93
2019-03-27T22:02:41.808Z,12.85
2019-03-27T22:05:11.336Z,12.93
2019-03-27T22:07:40.786Z,14.55
2019-03-27T22:10:11.432Z,13.40
2019-03-27T22:12:40.871Z,13.15
2019-03-27T22:15:10.478Z,12.63
2019-03-27T22:17:39.997Z,13.25
2019-03-27T22:20:09.535Z,12.35
2019-03-27T22:22:38.984Z,13.70
2019-03-27T22:25:09.277Z,15.85
2019-03-27T22:27:38.771Z,16.62
2019-03-27T22:30:09.244Z,15.68
2019-03-27T22:32:38.873Z,19.20
2019-03-27T22:35:08.869Z,16.67
2019-03-27T22:37:38.342Z,19.20
2019-03-27T22:40:08.541Z,16.50
2019-03-27T22:42:38.061Z,19.17
2019-03-27T22:45:07.780Z,20.37
2019-03-27T22:47:37.316Z,22.35
2019-03-27T22:50:08.894Z,19.55
2019-03-27T22:52:39.286Z,20.35
2019-03-27T22:55:09.430Z,21.37
2019-03-27T22:57:41.745Z,20.62
2019-03-27T23:00:13.284Z,22.22
2019-03-27T23:02:44.444Z,21.97
2019-03-27T23:05:14.038Z,20.77
2019-03-27T23:07:43.735Z,23.50
2019-03-27T23:10:13.460Z,22.87
2019-03-27T23:12:43.206Z,27.22
2019-03-27T23:15:12.871Z,27.20
2019-03-27T23:17:42.364Z,28.05
2019-03-27T23:20:11.998Z,25.55
2019-03-27T23:22:41.461Z,30.27
2019-03-27T23:25:12.139Z,26.65
2019-03-27T23:27:41.625Z,28.23
2019-03-27T23:30:12.883Z,25.90
2019-03-27T23:32:42.572Z,25.57
2019-03-27T23:35:12.198Z,26.48
2019-03-27T23:37:41.914Z,23.85
2019-03-27T23:40:11.748Z,29.73
2019-03-27T23:42:41.298Z,26.20
2019-03-27T23:45:11.115Z,28.87
2019-03-27T23:47:40.593Z,22.93
2019-03-27T23:50:10.763Z,24.27
2019-03-27T23:52:40.285Z,24.12
2019-03-27T23:55:09.920Z,25.90
2019-03-27T23:57:39.708Z,25.33
